createdAt,value
2022-08-02T00:00:10.165Z,99.90
2022-08-02T00:02:37.126Z,99.90
2022-08-02T00:05:05.032Z,99.90
2022-08-02T00:07:32.786Z,99.90
2022-08-02T00:10:01.011Z,99.90
2022-08-02T00:12:28.119Z,99.90
2022-08-02T00:14:54.976Z,99.90
2022-08-02T00:17:21.710Z,99.90
2022-08-02T00:19:48.639Z,99.90
2022-08-02T00:22:15.473Z,99.90
2022-08-02T00:24:42.228Z,99.90
2022-08-02T00:27:09.498Z,99.90
2022-08-02T00:29:42.628Z,99.90
2022-08-02T00:32:20.302Z,99.90
2022-08-02T00:34:47.027Z,99.90
2022-08-02T00:37:13.794Z,99.90
2022-08-02T00:39:42.393Z,99.90
2022-08-02T00:42:10.026Z,99.90
2022-08-02T00:44:37.340Z,99.90
2022-08-02T00:47:04.153Z,99.90
2022-08-02T00:49:30.991Z,99.90
2022-08-02T00:52:00.591Z,99.90
2022-08-02T00:54:27.360Z,99.90
2022-08-02T00:56:54.091Z,99.90
2022-08-02T00:59:20.886Z,99.90
2022-08-02T01:01:56.059Z,99.90
2022-08-02T01:04:30.709Z,99.90
2022-08-02T01:07:13.600Z,99.90
2022-08-02T01:09:45.286Z,99.90
2022-08-02T01:12:13.190Z,99.90
2022-08-02T01:14:42.551Z,99.90
2022-08-02T01:17:34.299Z,99.90
2022-08-02T01:20:42.216Z,99.90
2022-08-02T01:23:47.422Z,99.90
2022-08-02T01:26:39.202Z,99.90
2022-08-02T01:29:13.387Z,99.90
2022-08-02T01:31:47.173Z,99.90
2022-08-02T01:34:22.478Z,99.90
2022-08-02T01:37:16.577Z,99.90
2022-08-02T01:39:45.910Z,99.90
2022-08-02T01:42:14.037Z,99.90
2022-08-02T01:44:43.434Z,99.90
2022-08-02T01:47:17.841Z,99.90
2022-08-02T01:49:48.055Z,99.90
2022-08-02T01:52:22.639Z,99.90
2022-08-02T01:55:18.739Z,99.90
2022-08-02T01:57:57.133Z,99.90
2022-08-02T02:00:28.962Z,99.90
2022-08-02T02:02:57.800Z,99.90
2022-08-02T02:05:27.267Z,99.90
2022-08-02T02:07:56.843Z,99.90
2022-08-02T02:10:30.341Z,99.90
2022-08-02T02:13:04.164Z,99.90
2022-08-02T02:15:31.938Z,99.90
2022-08-02T02:18:12.791Z,99.90
2022-08-02T02:20:41.129Z,99.90
2022-08-02T02:23:08.066Z,99.90
2022-08-02T02:25:41.606Z,99.90
2022-08-02T02:28:22.547Z,99.90
2022-08-02T02:30:51.863Z,99.90
2022-08-02T02:33:19.626Z,99.90
2022-08-02T02:35:49.739Z,99.90
2022-08-02T02:38:19.072Z,99.90
2022-08-02T02:40:47.534Z,99.90
2022-08-02T02:43:15.532Z,99.90
2022-08-02T02:45:43.721Z,99.90
2022-08-02T02:48:13.694Z,99.90
2022-08-02T02:50:42.303Z,99.90
2022-08-02T02:53:10.444Z,99.90
2022-08-02T02:55:38.248Z,99.90
2022-08-02T02:58:06.440Z,99.90
2022-08-02T03:00:52.236Z,99.90
2022-08-02T03:03:21.345Z,99.90
2022-08-02T03:05:48.444Z,99.90
2022-08-02T03:08:15.304Z,99.90
2022-08-02T03:10:44.506Z,99.90
2022-08-02T03:13:12.541Z,99.90
2022-08-02T03:15:40.299Z,99.90
2022-08-02T03:18:09.873Z,99.90
2022-08-02T03:20:36.887Z,99.90
2022-08-02T03:23:03.621Z,99.90
2022-08-02T03:25:30.448Z,99.90
2022-08-02T03:27:57.132Z,99.90
2022-08-02T03:30:26.933Z,99.90
2022-08-02T03:32:53.802Z,99.90
2022-08-02T03:35:24.157Z,99.90
2022-08-02T03:37:54.165Z,99.90
2022-08-02T03:40:21.564Z,99.90
2022-08-02T03:42:49.497Z,99.90
2022-08-02T03:45:16.658Z,99.90
2022-08-02T03:47:44.564Z,99.90
2022-08-02T03:50:13.359Z,99.90
2022-08-02T03:52:45.121Z,99.90
2022-08-02T03:55:13.453Z,99.90
2022-08-02T03:57:41.766Z,99.90
2022-08-02T04:00:10.873Z,99.90
2022-08-02T04:02:37.553Z,99.90
2022-08-02T04:05:04.968Z,99.90
2022-08-02T04:08:32.752Z,99.90
2022-08-02T04:10:18.479Z,99.90
2022-08-02T04:12:45.610Z,99.90
2022-08-02T04:15:14.826Z,99.90
2022-08-02T04:17:47.815Z,99.90
2022-08-02T04:20:27.298Z,99.90
2022-08-02T04:23:10.224Z,99.90
2022-08-02T04:25:40.595Z,99.90
2022-08-02T04:28:16.609Z,99.90
2022-08-02T04:30:46.787Z,99.90
2022-08-02T04:33:14.463Z,99.90
2022-08-02T04:35:41.561Z,99.90
2022-08-02T04:38:10.588Z,99.90
2022-08-02T04:40:38.213Z,99.90
2022-08-02T04:43:05.287Z,99.90
2022-08-02T04:45:32.680Z,99.90
2022-08-02T04:48:05.035Z,99.90
2022-08-02T04:50:32.439Z,99.90
2022-08-02T04:52:59.186Z,99.90
2022-08-02T04:55:28.806Z,99.90
2022-08-02T04:57:57.772Z,99.90
2022-08-02T05:00:27.812Z,99.90
2022-08-02T05:02:56.781Z,99.90
2022-08-02T05:05:23.655Z,99.90
2022-08-02T05:07:50.340Z,99.90
2022-08-02T05:10:17.154Z,99.90
2022-08-02T05:12:44.037Z,99.90
2022-08-02T05:15:13.158Z,99.90
2022-08-02T05:17:48.023Z,99.90
2022-08-02T05:20:18.752Z,99.90
2022-08-02T05:22:45.828Z,99.90
2022-08-02T05:25:12.949Z,99.90
2022-08-02T05:27:39.700Z,99.90
2022-08-02T05:30:07.311Z,99.90
2022-08-02T05:32:34.457Z,99.90
2022-08-02T05:35:02.159Z,99.90
2022-08-02T05:37:32.164Z,99.90
2022-08-02T05:39:59.325Z,99.90
2022-08-02T05:42:31.269Z,99.90
2022-08-02T05:44:58.184Z,99.90
2022-08-02T05:47:25.879Z,99.90
2022-08-02T05:49:52.836Z,99.90
2022-08-02T05:52:20.863Z,99.90
2022-08-02T05:54:53.609Z,99.90
2022-08-02T05:57:26.635Z,99.90
2022-08-02T06:00:06.498Z,99.90
2022-08-02T06:03:05.132Z,99.90
2022-08-02T06:05:35.633Z,99.90
2022-08-02T06:08:04.369Z,99.90
2022-08-02T06:10:36.327Z,99.90
2022-08-02T06:13:14.507Z,99.90
2022-08-02T06:15:53.155Z,99.90
2022-08-02T06:18:28.517Z,99.90
2022-08-02T06:20:58.883Z,99.90
2022-08-02T06:23:57.615Z,99.90
2022-08-02T06:26:27.301Z,99.90
2022-08-02T06:28:55.498Z,99.90
2022-08-02T06:31:22.774Z,99.90
2022-08-02T06:33:49.718Z,99.90
2022-08-02T06:36:27.514Z,99.90
2022-08-02T06:39:06.098Z,99.90
2022-08-02T06:41:41.176Z,99.90
2022-08-02T06:44:33.856Z,99.90
2022-08-02T06:47:10.286Z,99.90
2022-08-02T06:49:51.831Z,99.90
2022-08-02T06:52:34.910Z,99.90
2022-08-02T06:55:04.085Z,99.90
2022-08-02T06:57:31.290Z,99.90
2022-08-02T07:00:01.682Z,99.90
2022-08-02T07:02:32.221Z,99.90
2022-08-02T07:04:59.329Z,99.90
2022-08-02T07:07:26.787Z,99.90
2022-08-02T07:10:00.378Z,99.90
2022-08-02T07:12:31.105Z,99.90
2022-08-02T07:14:59.533Z,99.90
2022-08-02T07:17:26.673Z,99.90
2022-08-02T07:19:53.434Z,99.90
2022-08-02T07:22:23.155Z,99.90
2022-08-02T07:24:52.885Z,99.90
2022-08-02T07:27:23.613Z,99.90
2022-08-02T07:29:50.662Z,99.90
2022-08-02T07:32:19.195Z,99.90
2022-08-02T07:34:53.245Z,99.90
2022-08-02T07:37:35.342Z,99.90
2022-08-02T07:40:15.331Z,99.90
2022-08-02T07:42:48.549Z,99.90
2022-08-02T07:45:15.293Z,99.90
2022-08-02T07:47:44.756Z,99.90
2022-08-02T07:50:12.710Z,99.90
2022-08-02T07:52:41.147Z,99.90
2022-08-02T07:55:09.859Z,99.90
2022-08-02T07:57:39.376Z,99.90
2022-08-02T08:00:12.008Z,99.90
2022-08-02T08:02:42.277Z,99.90
2022-08-02T08:05:10.816Z,99.90
2022-08-02T08:07:37.849Z,99.90
2022-08-02T08:10:06.336Z,99.90
2022-08-02T08:12:33.274Z,99.90
2022-08-02T08:15:00.114Z,99.90
2022-08-02T08:17:26.855Z,99.90
2022-08-02T08:19:53.755Z,99.90
2022-08-02T08:22:21.205Z,99.90
2022-08-02T08:24:48.883Z,99.90
2022-08-02T08:27:19.694Z,99.90
2022-08-02T08:29:46.670Z,99.90
2022-08-02T08:32:17.448Z,99.90
2022-08-02T08:34:48.119Z,99.90
2022-08-02T08:37:18.277Z,99.90
2022-08-02T08:39:56.824Z,99.90
2022-08-02T08:42:29.118Z,99.90
2022-08-02T08:44:57.489Z,99.90
2022-08-02T08:47:33.752Z,99.90
2022-08-02T08:50:17.869Z,99.90
2022-08-02T08:52:56.186Z,99.90
2022-08-02T08:55:24.865Z,99.90
2022-08-02T08:57:52.475Z,99.90
2022-08-02T09:00:19.309Z,99.90
2022-08-02T09:02:46.943Z,99.90
2022-08-02T09:05:16.817Z,99.90
2022-08-02T09:07:48.439Z,99.90
2022-08-02T09:10:41.226Z,99.90
2022-08-02T09:13:38.342Z,99.90
2022-08-02T09:16:12.570Z,99.90
2022-08-02T09:18:45.770Z,99.90
2022-08-02T09:21:15.688Z,99.90
2022-08-02T09:23:46.252Z,99.90
2022-08-02T09:26:21.310Z,99.90
2022-08-02T09:28:52.507Z,99.90
2022-08-02T09:31:23.751Z,99.90
2022-08-02T09:33:54.978Z,99.90
2022-08-02T09:36:23.060Z,99.90
2022-08-02T09:39:01.904Z,99.90
2022-08-02T09:41:30.629Z,99.90
2022-08-02T09:44:04.700Z,99.90
2022-08-02T09:46:37.636Z,99.90
2022-08-02T09:49:08.653Z,99.90
2022-08-02T09:51:49.733Z,99.90
2022-08-02T09:54:20.992Z,99.90
2022-08-02T09:56:54.682Z,99.90
2022-08-02T09:59:24.825Z,99.90
2022-08-02T10:02:02.031Z,99.90
2022-08-02T10:04:52.039Z,99.90
2022-08-02T10:07:22.321Z,99.90
2022-08-02T10:09:50.429Z,99.90
2022-08-02T10:12:17.712Z,99.90
2022-08-02T10:14:45.695Z,99.90
2022-08-02T10:17:12.657Z,99.90
2022-08-02T10:20:03.355Z,99.90
2022-08-02T10:22:27.466Z,99.90
2022-08-02T10:24:54.547Z,99.90
2022-08-02T10:27:21.676Z,99.90
2022-08-02T10:29:55.498Z,99.90
2022-08-02T10:32:28.645Z,99.90
2022-08-02T10:35:19.503Z,99.90
2022-08-02T10:37:56.288Z,99.90
2022-08-02T10:40:23.591Z,99.90
2022-08-02T10:43:00.966Z,99.90
2022-08-02T10:45:28.233Z,99.90
2022-08-02T10:48:14.614Z,99.90
2022-08-02T10:50:48.030Z,99.90
2022-08-02T10:53:26.771Z,99.90
2022-08-02T10:56:02.070Z,99.90
2022-08-02T10:58:32.215Z,99.90
2022-08-02T11:01:06.331Z,99.90
2022-08-02T11:03:39.633Z,99.90
2022-08-02T11:06:24.692Z,99.90
2022-08-02T11:09:33.630Z,99.90
2022-08-02T11:12:06.038Z,99.90
2022-08-02T11:14:41.653Z,99.90
2022-08-02T11:17:11.088Z,99.90
2022-08-02T11:20:08.952Z,99.90
2022-08-02T11:22:36.842Z,99.90
2022-08-02T11:25:22.035Z,99.90
2022-08-02T11:27:56.846Z,99.90
2022-08-02T11:30:26.866Z,99.90
2022-08-02T11:33:00.674Z,99.90
2022-08-02T11:35:38.549Z,99.90
2022-08-02T11:38:21.365Z,99.90
2022-08-02T11:40:49.022Z,99.90
2022-08-02T11:43:20.765Z,99.90
2022-08-02T11:45:49.464Z,99.90
2022-08-02T11:48:30.657Z,99.90
2022-08-02T11:51:23.826Z,99.90
2022-08-02T11:53:57.597Z,99.90
2022-08-02T11:56:30.004Z,99.90
2022-08-02T11:59:08.220Z,99.90
2022-08-02T12:01:45.108Z,99.90
2022-08-02T12:04:17.348Z,99.90
2022-08-02T12:06:53.167Z,99.90
2022-08-02T12:09:20.031Z,99.90
2022-08-02T12:11:50.998Z,99.90
2022-08-02T12:14:18.108Z,99.90
2022-08-02T12:17:03.577Z,99.90
2022-08-02T12:19:31.628Z,99.90
2022-08-02T12:22:41.734Z,99.90
2022-08-02T12:25:33.952Z,99.90
2022-08-02T12:28:23.288Z,99.90
2022-08-02T12:30:58.782Z,99.90
2022-08-02T12:33:29.327Z,99.90
2022-08-02T12:35:56.582Z,99.90
2022-08-02T12:38:23.307Z,99.90
2022-08-02T12:40:50.060Z,99.90
2022-08-02T12:43:22.319Z,99.90
2022-08-02T12:45:54.527Z,99.90
2022-08-02T12:48:37.351Z,99.90
2022-08-02T12:51:23.721Z,99.90
2022-08-02T12:53:59.799Z,99.90
2022-08-02T12:56:32.111Z,99.90
2022-08-02T12:58:59.619Z,99.90
2022-08-02T13:01:27.777Z,99.90
2022-08-02T13:04:09.145Z,99.70
2022-08-02T13:06:44.162Z,99.00
2022-08-02T13:09:13.955Z,99.40
2022-08-02T13:11:43.559Z,98.50
2022-08-02T13:14:11.774Z,97.80
2022-08-02T13:16:38.572Z,95.90
2022-08-02T13:19:05.417Z,95.50
2022-08-02T13:21:41.677Z,95.10
2022-08-02T13:24:38.589Z,95.80
2022-08-02T13:27:08.169Z,95.00
2022-08-02T13:29:36.596Z,94.70
2022-08-02T13:32:03.679Z,94.40
2022-08-02T13:34:30.506Z,95.50
2022-08-02T13:36:57.234Z,96.60
2022-08-02T13:39:23.953Z,96.00
2022-08-02T13:41:50.653Z,95.30
2022-08-02T13:44:17.501Z,95.90
2022-08-02T13:46:45.709Z,96.20
2022-08-02T13:49:18.894Z,94.20
2022-08-02T13:51:47.127Z,94.10
2022-08-02T13:54:14.717Z,93.30
2022-08-02T13:56:41.496Z,92.10
2022-08-02T13:59:55.438Z,91.70
2022-08-02T14:01:56.674Z,92.80
2022-08-02T14:04:24.140Z,92.40
2022-08-02T14:06:51.304Z,91.70
2022-08-02T14:09:18.071Z,88.00
2022-08-02T14:11:45.985Z,90.10
2022-08-02T14:14:16.582Z,89.60
2022-08-02T14:16:45.297Z,90.20
2022-08-02T14:19:16.359Z,91.60
2022-08-02T14:21:46.523Z,89.70
2022-08-02T14:24:15.163Z,85.40
2022-08-02T14:26:42.125Z,84.80
2022-08-02T14:29:09.167Z,81.70
2022-08-02T14:31:40.155Z,84.70
2022-08-02T14:34:11.112Z,83.60
2022-08-02T14:36:39.056Z,83.70
2022-08-02T14:39:05.974Z,84.70
2022-08-02T14:41:54.742Z,84.70
2022-08-02T14:44:20.645Z,86.70
2022-08-02T14:46:47.389Z,83.60
2022-08-02T14:49:25.447Z,83.10
2022-08-02T14:51:55.349Z,81.60
2022-08-02T14:54:28.237Z,81.70
2022-08-02T14:57:03.441Z,82.50
2022-08-02T14:59:31.218Z,82.60
2022-08-02T15:01:59.040Z,83.80
2022-08-02T15:04:26.177Z,82.90
2022-08-02T15:06:53.090Z,82.80
2022-08-02T15:09:20.375Z,82.50
2022-08-02T15:11:49.094Z,81.30
2022-08-02T15:14:22.072Z,80.00
2022-08-02T15:16:57.104Z,82.20
2022-08-02T15:19:25.794Z,79.70
2022-08-02T15:22:03.854Z,79.70
2022-08-02T15:24:30.645Z,79.60
2022-08-02T15:26:57.416Z,79.60
2022-08-02T15:29:24.316Z,81.80
2022-08-02T15:31:50.992Z,77.90
2022-08-02T15:34:18.845Z,77.10
2022-08-02T15:36:45.758Z,76.00
2022-08-02T15:39:12.486Z,76.20
2022-08-02T15:41:39.186Z,75.50
2022-08-02T15:44:09.434Z,79.60
2022-08-02T15:46:38.188Z,74.70
2022-08-02T15:49:05.506Z,76.30
2022-08-02T15:51:32.381Z,73.60
2022-08-02T15:53:59.179Z,74.70
2022-08-02T15:56:26.053Z,74.70
2022-08-02T15:58:55.454Z,75.90
2022-08-02T16:01:23.955Z,75.20
2022-08-02T16:03:50.864Z,75.20
2022-08-02T16:06:17.648Z,74.80
2022-08-02T16:08:51.677Z,77.30
2022-08-02T16:11:21.230Z,75.70
2022-08-02T16:13:53.601Z,73.90
2022-08-02T16:16:32.448Z,71.90
2022-08-02T16:19:00.116Z,73.40
2022-08-02T16:21:48.908Z,73.40
2022-08-02T16:24:17.457Z,73.00
2022-08-02T16:26:44.569Z,73.20
2022-08-02T16:29:11.772Z,74.80
2022-08-02T16:31:42.478Z,76.90
2022-08-02T16:34:10.463Z,75.90
2022-08-02T16:36:37.458Z,77.00
2022-08-02T16:39:05.038Z,73.80
2022-08-02T16:41:51.196Z,71.80
2022-08-02T16:44:29.779Z,72.10
2022-08-02T16:47:01.038Z,72.30
2022-08-02T16:50:06.894Z,73.30
2022-08-02T16:52:16.101Z,71.20
2022-08-02T16:54:42.825Z,71.70
2022-08-02T16:57:09.636Z,72.00
2022-08-02T16:59:42.830Z,73.50
2022-08-02T17:02:15.342Z,74.20
2022-08-02T17:04:45.488Z,74.10
2022-08-02T17:08:06.012Z,71.90
2022-08-02T17:10:02.303Z,71.90
2022-08-02T17:12:32.026Z,72.10
2022-08-02T17:15:00.708Z,70.70
2022-08-02T17:17:39.341Z,71.60
2022-08-02T17:20:09.240Z,71.90
2022-08-02T17:22:36.801Z,73.90
2022-08-02T17:25:04.907Z,72.50
2022-08-02T17:27:31.633Z,73.70
2022-08-02T17:29:59.815Z,75.40
2022-08-02T17:32:27.293Z,75.40
2022-08-02T17:34:59.891Z,75.10
2022-08-02T17:37:28.666Z,74.30
2022-08-02T17:39:57.006Z,75.20
2022-08-02T17:42:25.045Z,75.60
2022-08-02T17:45:07.156Z,75.00
2022-08-02T17:47:43.062Z,76.30
2022-08-02T17:50:29.816Z,77.40
2022-08-02T17:52:56.802Z,78.00
2022-08-02T17:55:23.663Z,77.10
2022-08-02T17:57:57.792Z,78.10
2022-08-02T18:00:31.420Z,77.60
2022-08-02T18:03:00.497Z,78.40
2022-08-02T18:05:39.241Z,79.10
2022-08-02T18:08:08.663Z,79.30
2022-08-02T18:10:35.452Z,80.80
2022-08-02T18:13:03.604Z,81.00
2022-08-02T18:15:32.373Z,80.80
2022-08-02T18:17:59.830Z,81.20
2022-08-02T18:20:26.557Z,82.10
2022-08-02T18:22:55.874Z,83.20
2022-08-02T18:25:36.244Z,85.20
2022-08-02T18:28:10.816Z,84.20
2022-08-02T18:30:37.667Z,84.60
2022-08-02T18:33:58.839Z,86.10
2022-08-02T18:35:55.377Z,86.40
2022-08-02T18:38:23.593Z,87.50
2022-08-02T18:40:50.803Z,88.10
2022-08-02T18:43:18.614Z,88.50
2022-08-02T18:46:05.262Z,88.60
2022-08-02T18:48:32.342Z,90.00
2022-08-02T18:50:59.030Z,90.30
2022-08-02T18:53:39.515Z,90.50
2022-08-02T18:56:10.719Z,90.70
2022-08-02T18:58:48.249Z,90.80
2022-08-02T19:01:31.657Z,91.30
2022-08-02T19:04:01.588Z,91.50
2022-08-02T19:06:29.275Z,92.10
2022-08-02T19:09:03.542Z,92.30
2022-08-02T19:11:35.144Z,92.50
2022-08-02T19:14:02.431Z,92.30
2022-08-02T19:16:36.793Z,92.50
2022-08-02T19:19:07.976Z,93.20
2022-08-02T19:22:16.134Z,93.50
2022-08-02T19:24:22.211Z,94.30
2022-08-02T19:26:51.958Z,94.50
2022-08-02T19:29:42.218Z,94.80
2022-08-02T19:32:42.835Z,95.00
2022-08-02T19:34:56.129Z,95.20
2022-08-02T19:37:23.021Z,95.30
2022-08-02T19:39:50.669Z,95.50
2022-08-02T19:42:18.733Z,95.60
2022-08-02T19:44:46.067Z,95.90
2022-08-02T19:47:19.419Z,96.00
2022-08-02T19:52:33.404Z,97.00
2022-08-02T19:55:59.638Z,97.30
2022-08-02T19:57:48.164Z,97.30
2022-08-02T20:00:21.330Z,97.60
2022-08-02T20:02:48.707Z,98.00
2022-08-02T20:05:16.487Z,97.90
2022-08-02T20:07:56.314Z,98.10
2022-08-02T20:10:24.839Z,98.50
2022-08-02T20:12:53.994Z,98.80
2022-08-02T20:15:21.824Z,99.20
2022-08-02T20:17:49.299Z,99.20
2022-08-02T20:20:17.049Z,99.30
2022-08-02T20:23:31.937Z,99.10
2022-08-02T20:25:54.255Z,99.40
2022-08-02T20:28:21.951Z,99.90
2022-08-02T20:30:49.134Z,99.90
2022-08-02T20:33:21.182Z,99.90
2022-08-02T20:35:48.530Z,99.90
2022-08-02T20:38:19.087Z,99.90
2022-08-02T20:40:52.070Z,99.90
2022-08-02T20:43:18.771Z,99.90
2022-08-02T20:45:46.327Z,99.90
2022-08-02T20:48:13.027Z,99.90
2022-08-02T20:50:49.504Z,99.90
2022-08-02T20:53:23.264Z,99.90
2022-08-02T20:55:53.180Z,99.90
2022-08-02T20:58:20.622Z,99.90
2022-08-02T21:00:58.858Z,99.90
2022-08-02T21:03:38.739Z,99.90
2022-08-02T21:06:10.915Z,99.90
2022-08-02T21:08:38.811Z,99.90
2022-08-02T21:11:12.905Z,99.90
2022-08-02T21:13:47.433Z,99.90
2022-08-02T21:16:29.798Z,99.90
2022-08-02T21:19:00.272Z,99.90
2022-08-02T21:21:27.873Z,99.90
2022-08-02T21:23:55.258Z,99.90
2022-08-02T21:26:25.932Z,99.90
2022-08-02T21:28:58.306Z,99.90
2022-08-02T21:31:30.049Z,99.90
2022-08-02T21:34:00.244Z,99.90
2022-08-02T21:36:33.930Z,99.90
2022-08-02T21:39:09.272Z,99.90
2022-08-02T21:41:45.892Z,99.90
2022-08-02T21:44:18.721Z,99.90
2022-08-02T21:46:49.349Z,99.90
2022-08-02T21:49:17.854Z,99.90
2022-08-02T21:51:49.773Z,99.90
2022-08-02T21:54:19.924Z,99.90
2022-08-02T21:56:50.096Z,99.90
2022-08-02T21:59:25.473Z,99.90
2022-08-02T22:01:56.652Z,99.90
2022-08-02T22:04:28.568Z,99.90
2022-08-02T22:06:56.799Z,99.90
2022-08-02T22:09:42.252Z,99.90
2022-08-02T22:12:17.841Z,99.90
2022-08-02T22:14:49.622Z,99.90
2022-08-02T22:17:21.708Z,99.90
2022-08-02T22:20:09.342Z,99.90
2022-08-02T22:22:39.612Z,99.90
2022-08-02T22:25:10.059Z,99.90
2022-08-02T22:28:35.507Z,99.90
2022-08-02T22:30:35.590Z,99.90
2022-08-02T22:33:21.472Z,99.90
2022-08-02T22:36:00.311Z,99.90
2022-08-02T22:38:27.055Z,99.90
2022-08-02T22:40:54.154Z,99.90
2022-08-02T22:43:23.141Z,99.90
2022-08-02T22:45:50.772Z,99.90
2022-08-02T22:48:17.585Z,99.90
2022-08-02T22:50:44.334Z,99.90
2022-08-02T22:53:11.048Z,99.90
2022-08-02T22:55:41.322Z,99.90
2022-08-02T22:58:09.089Z,99.90
2022-08-02T22:59:05.898Z,96.40
2022-08-02T23:00:36.148Z,99.90
2022-08-02T23:03:03.128Z,99.90
2022-08-02T23:05:34.069Z,99.90
2022-08-02T23:08:01.016Z,99.90
2022-08-02T23:10:28.248Z,99.90
2022-08-02T23:12:58.863Z,99.90
2022-08-02T23:15:26.392Z,99.90
2022-08-02T23:18:12.341Z,99.90
2022-08-02T23:20:39.015Z,99.90
2022-08-02T23:23:11.708Z,99.90
2022-08-02T23:25:38.750Z,99.90
2022-08-02T23:28:05.514Z,99.90
2022-08-02T23:30:32.208Z,99.90
2022-08-02T23:32:58.879Z,99.90
2022-08-02T23:35:25.639Z,99.90
2022-08-02T23:37:57.798Z,99.90
2022-08-02T23:40:39.655Z,99.90
2022-08-02T23:43:13.623Z,99.90
2022-08-02T23:45:43.118Z,99.90
2022-08-02T23:48:09.821Z,99.90
2022-08-02T23:50:36.673Z,99.90
2022-08-02T23:53:03.864Z,99.90
2022-08-02T23:55:30.648Z,99.90
2022-08-02T23:57:57.360Z,99.90
